sensor_id;sensor_type;location;lat;lon;timestamp;P1;durP1;ratioP1;P2;durP2;ratioP2
47239;SDS011;32978;53.586;10.052;2023-12-29T00:04:23;9.73;;;6.80;;
47239;SDS011;32978;53.586;10.052;2023-12-29T00:09:20;18.33;;;9.10;;
47239;SDS011;32978;53.586;10.052;2023-12-29T00:14:16;11.88;;;8.77;;
47239;SDS011;32978;53.586;10.052;2023-12-29T00:19:14;11.30;;;8.77;;
47239;SDS011;32978;53.586;10.052;2023-12-29T00:24:11;12.85;;;7.78;;
47239;SDS011;32978;53.586;10.052;2023-12-29T00:29:08;10.10;;;8.15;;
47239;SDS011;32978;53.586;10.052;2023-12-29T00:34:04;9.52;;;8.38;;
47239;SDS011;32978;53.586;10.052;2023-12-29T00:39:01;19.65;;;9.43;;
47239;SDS011;32978;53.586;10.052;2023-12-29T00:43:57;15.50;;;8.30;;
47239;SDS011;32978;53.586;10.052;2023-12-29T00:48:54;11.77;;;8.50;;
47239;SDS011;32978;53.586;10.052;2023-12-29T00:53:51;19.90;;;9.43;;
47239;SDS011;32978;53.586;10.052;2023-12-29T00:58:47;14.18;;;9.07;;
47239;SDS011;32978;53.586;10.052;2023-12-29T01:03:44;13.95;;;8.95;;
47239;SDS011;32978;53.586;10.052;2023-12-29T01:08:50;13.57;;;8.65;;
47239;SDS011;32978;53.586;10.052;2023-12-29T01:13:59;11.45;;;9.00;;
47239;SDS011;32978;53.586;10.052;2023-12-29T01:18:56;10.43;;;8.98;;
47239;SDS011;32978;53.586;10.052;2023-12-29T01:23:52;10.57;;;9.23;;
47239;SDS011;32978;53.586;10.052;2023-12-29T01:28:49;12.20;;;9.45;;
47239;SDS011;32978;53.586;10.052;2023-12-29T01:33:45;15.60;;;9.68;;
47239;SDS011;32978;53.586;10.052;2023-12-29T01:38:42;13.77;;;9.57;;
47239;SDS011;32978;53.586;10.052;2023-12-29T01:48:51;12.57;;;9.40;;
47239;SDS011;32978;53.586;10.052;2023-12-29T01:53:48;9.65;;;8.75;;
47239;SDS011;32978;53.586;10.052;2023-12-29T01:58:45;12.00;;;10.02;;
47239;SDS011;32978;53.586;10.052;2023-12-29T02:03:47;11.43;;;8.88;;
47239;SDS011;32978;53.586;10.052;2023-12-29T02:08:44;10.77;;;9.13;;
47239;SDS011;32978;53.586;10.052;2023-12-29T02:13:41;15.45;;;10.07;;
47239;SDS011;32978;53.586;10.052;2023-12-29T02:18:38;10.90;;;9.50;;
47239;SDS011;32978;53.586;10.052;2023-12-29T02:23:37;10.82;;;9.18;;
47239;SDS011;32978;53.586;10.052;2023-12-29T02:28:34;10.63;;;9.63;;
47239;SDS011;32978;53.586;10.052;2023-12-29T02:33:38;10.20;;;9.30;;
47239;SDS011;32978;53.586;10.052;2023-12-29T02:38:37;11.95;;;9.98;;
47239;SDS011;32978;53.586;10.052;2023-12-29T02:43:35;15.25;;;11.40;;
47239;SDS011;32978;53.586;10.052;2023-12-29T02:53:39;10.68;;;9.60;;
47239;SDS011;32978;53.586;10.052;2023-12-29T02:58:36;13.55;;;9.50;;
47239;SDS011;32978;53.586;10.052;2023-12-29T03:03:32;11.73;;;9.43;;
47239;SDS011;32978;53.586;10.052;2023-12-29T03:08:29;9.00;;;8.13;;
47239;SDS011;32978;53.586;10.052;2023-12-29T03:13:25;12.15;;;8.23;;
47239;SDS011;32978;53.586;10.052;2023-12-29T03:18:22;8.98;;;8.07;;
47239;SDS011;32978;53.586;10.052;2023-12-29T03:23:19;10.48;;;8.90;;
47239;SDS011;32978;53.586;10.052;2023-12-29T03:28:15;9.98;;;9.07;;
47239;SDS011;32978;53.586;10.052;2023-12-29T03:33:12;11.35;;;10.32;;
47239;SDS011;32978;53.586;10.052;2023-12-29T03:44:02;17.13;;;10.32;;
47239;SDS011;32978;53.586;10.052;2023-12-29T03:48:59;11.15;;;9.73;;
47239;SDS011;32978;53.586;10.052;2023-12-29T03:53:56;12.13;;;10.85;;
47239;SDS011;32978;53.586;10.052;2023-12-29T03:58:54;10.73;;;9.88;;
47239;SDS011;32978;53.586;10.052;2023-12-29T04:03:51;11.02;;;10.02;;
47239;SDS011;32978;53.586;10.052;2023-12-29T04:08:47;11.77;;;10.73;;
47239;SDS011;32978;53.586;10.052;2023-12-29T04:13:44;9.95;;;8.93;;
47239;SDS011;32978;53.586;10.052;2023-12-29T04:18:40;9.73;;;8.57;;
47239;SDS011;32978;53.586;10.052;2023-12-29T04:23:37;8.15;;;7.45;;
47239;SDS011;32978;53.586;10.052;2023-12-29T04:28:33;7.68;;;6.95;;
47239;SDS011;32978;53.586;10.052;2023-12-29T04:33:31;8.80;;;8.10;;
47239;SDS011;32978;53.586;10.052;2023-12-29T04:38:28;9.40;;;8.80;;
47239;SDS011;32978;53.586;10.052;2023-12-29T04:43:25;9.48;;;8.60;;
47239;SDS011;32978;53.586;10.052;2023-12-29T04:48:21;10.00;;;9.20;;
47239;SDS011;32978;53.586;10.052;2023-12-29T04:53:18;9.25;;;8.63;;
47239;SDS011;32978;53.586;10.052;2023-12-29T04:58:14;12.07;;;9.05;;
47239;SDS011;32978;53.586;10.052;2023-12-29T05:03:11;9.45;;;8.70;;
47239;SDS011;32978;53.586;10.052;2023-12-29T05:08:08;9.80;;;8.90;;
47239;SDS011;32978;53.586;10.052;2023-12-29T05:13:04;9.70;;;8.90;;
47239;SDS011;32978;53.586;10.052;2023-12-29T05:18:01;9.93;;;9.05;;
47239;SDS011;32978;53.586;10.052;2023-12-29T05:22:58;12.05;;;9.93;;
47239;SDS011;32978;53.586;10.052;2023-12-29T05:27:54;11.88;;;9.93;;
47239;SDS011;32978;53.586;10.052;2023-12-29T05:32:51;10.98;;;9.90;;
47239;SDS011;32978;53.586;10.052;2023-12-29T05:37:47;10.85;;;9.70;;
47239;SDS011;32978;53.586;10.052;2023-12-29T05:42:44;11.18;;;10.07;;
47239;SDS011;32978;53.586;10.052;2023-12-29T05:47:41;10.52;;;9.65;;
47239;SDS011;32978;53.586;10.052;2023-12-29T05:52:37;11.05;;;10.00;;
47239;SDS011;32978;53.586;10.052;2023-12-29T05:57:34;11.52;;;10.32;;
47239;SDS011;32978;53.586;10.052;2023-12-29T06:02:30;10.82;;;9.70;;
47239;SDS011;32978;53.586;10.052;2023-12-29T06:07:27;13.32;;;9.70;;
47239;SDS011;32978;53.586;10.052;2023-12-29T06:12:24;10.73;;;9.80;;
47239;SDS011;32978;53.586;10.052;2023-12-29T06:17:20;11.45;;;10.38;;
47239;SDS011;32978;53.586;10.052;2023-12-29T06:22:17;11.63;;;10.02;;
47239;SDS011;32978;53.586;10.052;2023-12-29T06:27:13;12.93;;;9.75;;
47239;SDS011;32978;53.586;10.052;2023-12-29T06:32:10;12.00;;;10.48;;
47239;SDS011;32978;53.586;10.052;2023-12-29T06:37:06;16.50;;;10.57;;
47239;SDS011;32978;53.586;10.052;2023-12-29T06:42:03;11.57;;;10.43;;
47239;SDS011;32978;53.586;10.052;2023-12-29T06:47:00;15.93;;;10.32;;
47239;SDS011;32978;53.586;10.052;2023-12-29T06:51:56;13.85;;;11.10;;
47239;SDS011;32978;53.586;10.052;2023-12-29T06:56:53;13.88;;;11.38;;
47239;SDS011;32978;53.586;10.052;2023-12-29T07:01:49;12.15;;;10.77;;
47239;SDS011;32978;53.586;10.052;2023-12-29T07:06:46;13.70;;;11.20;;
47239;SDS011;32978;53.586;10.052;2023-12-29T07:11:49;15.25;;;10.98;;
47239;SDS011;32978;53.586;10.052;2023-12-29T07:16:46;16.65;;;11.52;;
47239;SDS011;32978;53.586;10.052;2023-12-29T07:21:43;17.35;;;11.88;;
47239;SDS011;32978;53.586;10.052;2023-12-29T07:26:40;18.40;;;10.30;;
47239;SDS011;32978;53.586;10.052;2023-12-29T07:31:40;15.98;;;12.07;;
47239;SDS011;32978;53.586;10.052;2023-12-29T07:36:40;13.82;;;11.05;;
47239;SDS011;32978;53.586;10.052;2023-12-29T07:41:40;21.08;;;13.07;;
47239;SDS011;32978;53.586;10.052;2023-12-29T07:46:41;18.02;;;12.10;;
47239;SDS011;32978;53.586;10.052;2023-12-29T07:51:41;21.38;;;12.23;;
47239;SDS011;32978;53.586;10.052;2023-12-29T07:56:39;12.63;;;11.55;;
47239;SDS011;32978;53.586;10.052;2023-12-29T08:01:35;15.40;;;11.95;;
47239;SDS011;32978;53.586;10.052;2023-12-29T09:33:25;9.48;;;8.48;;
47239;SDS011;32978;53.586;10.052;2023-12-29T09:38:21;10.05;;;9.20;;
47239;SDS011;32978;53.586;10.052;2023-12-29T09:43:21;11.95;;;9.05;;
47239;SDS011;32978;53.586;10.052;2023-12-29T09:48:17;10.38;;;9.05;;
47239;SDS011;32978;53.586;10.052;2023-12-29T09:53:16;11.40;;;8.60;;
47239;SDS011;32978;53.586;10.052;2023-12-29T09:58:13;9.48;;;8.55;;
47239;SDS011;32978;53.586;10.052;2023-12-29T10:03:11;12.00;;;9.20;;
47239;SDS011;32978;53.586;10.052;2023-12-29T10:08:08;14.30;;;11.13;;
47239;SDS011;32978;53.586;10.052;2023-12-29T10:13:06;18.73;;;10.38;;
47239;SDS011;32978;53.586;10.052;2023-12-29T10:30:01;20.02;;;11.30;;
47239;SDS011;32978;53.586;10.052;2023-12-29T10:35:09;19.55;;;11.63;;
47239;SDS011;32978;53.586;10.052;2023-12-29T11:08:57;15.45;;;12.57;;
47239;SDS011;32978;53.586;10.052;2023-12-29T11:13:54;15.23;;;11.80;;
47239;SDS011;32978;53.586;10.052;2023-12-29T12:24:55;13.98;;;11.57;;
47239;SDS011;32978;53.586;10.052;2023-12-29T12:29:54;13.23;;;7.88;;
47239;SDS011;32978;53.586;10.052;2023-12-29T12:34:53;11.02;;;8.77;;
47239;SDS011;32978;53.586;10.052;2023-12-29T13:13:47;11.30;;;10.25;;
47239;SDS011;32978;53.586;10.052;2023-12-29T13:51:49;10.98;;;9.82;;
47239;SDS011;32978;53.586;10.052;2023-12-29T14:22:33;18.88;;;12.52;;
47239;SDS011;32978;53.586;10.052;2023-12-29T14:27:30;15.77;;;12.57;;
47239;SDS011;32978;53.586;10.052;2023-12-29T16:50:29;18.23;;;8.10;;
47239;SDS011;32978;53.586;10.052;2023-12-29T16:55:25;16.70;;;7.88;;
47239;SDS011;32978;53.586;10.052;2023-12-29T17:00:22;21.98;;;8.32;;
47239;SDS011;32978;53.586;10.052;2023-12-29T17:05:19;10.93;;;7.47;;
47239;SDS011;32978;53.586;10.052;2023-12-29T17:10:15;18.83;;;8.20;;
47239;SDS011;32978;53.586;10.052;2023-12-29T17:15:12;13.00;;;8.43;;
47239;SDS011;32978;53.586;10.052;2023-12-29T17:42:57;13.75;;;9.18;;
47239;SDS011;32978;53.586;10.052;2023-12-29T18:05:02;11.63;;;8.93;;
47239;SDS011;32978;53.586;10.052;2023-12-29T18:10:00;19.42;;;10.48;;
47239;SDS011;32978;53.586;10.052;2023-12-29T18:14:56;15.43;;;9.40;;
47239;SDS011;32978;53.586;10.052;2023-12-29T18:53:14;13.98;;;9.57;;
47239;SDS011;32978;53.586;10.052;2023-12-29T19:29:26;15.57;;;8.23;;
47239;SDS011;32978;53.586;10.052;2023-12-29T19:34:23;15.70;;;8.70;;
47239;SDS011;32978;53.586;10.052;2023-12-29T19:39:20;10.07;;;8.10;;
47239;SDS011;32978;53.586;10.052;2023-12-29T19:44:17;12.38;;;7.80;;
47239;SDS011;32978;53.586;10.052;2023-12-29T19:49:36;12.30;;;8.10;;
47239;SDS011;32978;53.586;10.052;2023-12-29T20:01:13;9.80;;;7.35;;
47239;SDS011;32978;53.586;10.052;2023-12-29T20:07:02;17.33;;;7.40;;
47239;SDS011;32978;53.586;10.052;2023-12-29T20:11:59;15.15;;;7.35;;
47239;SDS011;32978;53.586;10.052;2023-12-29T20:16:56;8.70;;;6.80;;
47239;SDS011;32978;53.586;10.052;2023-12-29T20:21:53;9.07;;;6.63;;
47239;SDS011;32978;53.586;10.052;2023-12-29T20:26:50;8.20;;;7.05;;
47239;SDS011;32978;53.586;10.052;2023-12-29T20:31:47;13.20;;;6.90;;
47239;SDS011;32978;53.586;10.052;2023-12-29T20:36:43;13.10;;;7.90;;
47239;SDS011;32978;53.586;10.052;2023-12-29T20:41:40;15.77;;;7.82;;
47239;SDS011;32978;53.586;10.052;2023-12-29T20:51:50;15.53;;;9.37;;
47239;SDS011;32978;53.586;10.052;2023-12-29T20:56:46;11.55;;;9.25;;
47239;SDS011;32978;53.586;10.052;2023-12-29T21:01:43;13.43;;;8.57;;
47239;SDS011;32978;53.586;10.052;2023-12-29T21:06:40;9.55;;;7.68;;
47239;SDS011;32978;53.586;10.052;2023-12-29T21:11:37;8.20;;;7.40;;
47239;SDS011;32978;53.586;10.052;2023-12-29T21:16:34;7.93;;;7.28;;
47239;SDS011;32978;53.586;10.052;2023-12-29T21:21:37;8.38;;;7.40;;
47239;SDS011;32978;53.586;10.052;2023-12-29T21:26:35;7.88;;;6.05;;
47239;SDS011;32978;53.586;10.052;2023-12-29T21:31:34;8.75;;;6.30;;
47239;SDS011;32978;53.586;10.052;2023-12-29T21:36:31;6.55;;;5.68;;
47239;SDS011;32978;53.586;10.052;2023-12-29T21:41:28;6.80;;;6.20;;
47239;SDS011;32978;53.586;10.052;2023-12-29T21:46:27;7.22;;;6.38;;
47239;SDS011;32978;53.586;10.052;2023-12-29T21:51:23;9.77;;;6.65;;
47239;SDS011;32978;53.586;10.052;2023-12-29T21:56:21;6.75;;;5.90;;
47239;SDS011;32978;53.586;10.052;2023-12-29T22:01:33;6.88;;;6.18;;
47239;SDS011;32978;53.586;10.052;2023-12-29T22:06:38;6.32;;;5.80;;
47239;SDS011;32978;53.586;10.052;2023-12-29T22:11:35;6.82;;;6.20;;
47239;SDS011;32978;53.586;10.052;2023-12-29T22:16:43;6.25;;;5.65;;
47239;SDS011;32978;53.586;10.052;2023-12-29T22:22:00;5.88;;;5.38;;
47239;SDS011;32978;53.586;10.052;2023-12-29T22:26:56;6.28;;;5.43;;
47239;SDS011;32978;53.586;10.052;2023-12-29T22:31:54;8.55;;;7.75;;
47239;SDS011;32978;53.586;10.052;2023-12-29T22:42:18;7.15;;;5.80;;
47239;SDS011;32978;53.586;10.052;2023-12-29T22:53:52;5.90;;;5.40;;
47239;SDS011;32978;53.586;10.052;2023-12-29T22:59:02;8.02;;;5.72;;
47239;SDS011;32978;53.586;10.052;2023-12-29T23:05:02;5.70;;;5.30;;
47239;SDS011;32978;53.586;10.052;2023-12-29T23:09:59;7.88;;;6.82;;
47239;SDS011;32978;53.586;10.052;2023-12-29T23:14:55;7.63;;;6.13;;
47239;SDS011;32978;53.586;10.052;2023-12-29T23:19:52;10.60;;;6.80;;
47239;SDS011;32978;53.586;10.052;2023-12-29T23:24:48;10.93;;;6.60;;
47239;SDS011;32978;53.586;10.052;2023-12-29T23:29:45;8.52;;;6.65;;
47239;SDS011;32978;53.586;10.052;2023-12-29T23:34:42;10.55;;;7.00;;
47239;SDS011;32978;53.586;10.052;2023-12-29T23:39:38;14.85;;;6.65;;
47239;SDS011;32978;53.586;10.052;2023-12-29T23:44:35;11.70;;;7.15;;
47239;SDS011;32978;53.586;10.052;2023-12-29T23:49:32;8.05;;;6.20;;
47239;SDS011;32978;53.586;10.052;2023-12-29T23:54:29;10.43;;;6.40;;
47239;SDS011;32978;53.586;10.052;2023-12-29T23:59:25;10.82;;;6.68;;
